createdAt,value
2019-05-25T00:01:05.511Z,1.67
2019-05-25T00:02:11.034Z,1.57
2019-05-25T00:03:16.868Z,1.73
2019-05-25T00:04:22.423Z,1.50
2019-05-25T00:05:29.030Z,1.70
2019-05-25T00:06:34.627Z,1.40
2019-05-25T00:07:40.565Z,1.37
2019-05-25T00:08:46.044Z,1.73
2019-05-25T00:09:52.350Z,1.70
2019-05-25T00:10:57.621Z,1.70
2019-05-25T00:12:03.646Z,1.57
2019-05-25T00:13:09.006Z,1.70
2019-05-25T00:14:15.376Z,1.73
2019-05-25T00:15:20.491Z,1.63
2019-05-25T00:16:26.728Z,1.30
2019-05-25T00:17:31.841Z,1.60
2019-05-25T00:18:37.756Z,1.43
2019-05-25T00:19:42.945Z,1.33
2019-05-25T00:20:49.128Z,1.40
2019-05-25T00:21:54.282Z,1.60
2019-05-25T00:23:00.011Z,1.73
2019-05-25T00:24:12.336Z,1.40
2019-05-25T00:25:12.920Z,1.50
2019-05-25T00:26:18.272Z,1.77
2019-05-25T00:27:24.545Z,1.30
2019-05-25T00:28:30.044Z,1.77
2019-05-25T00:29:36.137Z,1.53
2019-05-25T00:30:41.825Z,1.83
2019-05-25T00:31:47.547Z,1.73
2019-05-25T00:32:53.249Z,1.63
2019-05-25T00:33:59.153Z,1.40
2019-05-25T00:35:04.355Z,1.57
2019-05-25T00:36:10.046Z,1.50
2019-05-25T00:37:15.410Z,1.40
2019-05-25T00:38:21.312Z,1.40
2019-05-25T00:39:26.610Z,1.53
2019-05-25T00:40:32.745Z,1.43
2019-05-25T00:41:37.924Z,1.40
2019-05-25T00:42:44.314Z,1.40
2019-05-25T00:43:49.422Z,1.23
2019-05-25T00:44:55.598Z,1.03
2019-05-25T00:46:00.968Z,1.40
2019-05-25T00:47:06.897Z,1.50
2019-05-25T00:48:12.663Z,1.60
2019-05-25T00:49:18.458Z,1.30
2019-05-25T00:50:23.525Z,1.40
2019-05-25T00:51:29.390Z,1.00
2019-05-25T00:52:34.932Z,1.40
2019-05-25T00:53:41.432Z,1.00
2019-05-25T00:54:46.861Z,1.30
2019-05-25T00:55:53.294Z,1.13
2019-05-25T00:56:58.256Z,1.10
2019-05-25T00:58:04.550Z,1.43
2019-05-25T00:59:09.967Z,1.50
2019-05-25T01:00:18.619Z,1.53
2019-05-25T01:01:27.851Z,1.10
2019-05-25T01:02:36.907Z,1.13
2019-05-25T01:03:43.784Z,1.10
2019-05-25T01:04:52.503Z,1.07
2019-05-25T01:05:59.715Z,1.30
2019-05-25T01:07:09.175Z,1.33
2019-05-25T01:08:16.003Z,1.13
2019-05-25T01:09:34.670Z,1.47
2019-05-25T01:10:39.806Z,1.23
2019-05-25T01:11:45.674Z,1.17
2019-05-25T01:12:50.755Z,1.10
2019-05-25T01:13:56.893Z,1.50
2019-05-25T01:15:02.149Z,1.63
2019-05-25T01:16:08.197Z,1.17
2019-05-25T01:17:13.553Z,1.27
2019-05-25T01:18:19.975Z,1.50
2019-05-25T01:19:25.078Z,1.13
2019-05-25T01:20:30.961Z,1.17
2019-05-25T01:21:36.056Z,1.30
2019-05-25T01:22:42.188Z,1.20
2019-05-25T01:23:47.548Z,1.30
2019-05-25T01:24:53.508Z,1.00
2019-05-25T01:25:58.921Z,1.10
2019-05-25T01:27:05.338Z,1.00
2019-05-25T01:28:10.824Z,1.30
2019-05-25T01:29:17.218Z,1.10
2019-05-25T01:30:22.496Z,0.97
2019-05-25T01:31:28.791Z,1.23
2019-05-25T01:32:34.527Z,1.00
2019-05-25T01:33:40.767Z,1.10
2019-05-25T01:34:45.790Z,1.07
2019-05-25T01:35:52.290Z,1.07
2019-05-25T01:36:58.291Z,1.13
2019-05-25T01:38:04.614Z,1.43
2019-05-25T01:39:09.991Z,1.00
2019-05-25T01:40:17.086Z,1.17
2019-05-25T01:41:22.344Z,1.27
2019-05-25T01:42:29.253Z,1.00
2019-05-25T01:43:34.456Z,1.20
2019-05-25T01:44:40.412Z,1.17
2019-05-25T01:45:45.859Z,1.10
2019-05-25T01:46:52.017Z,1.30
2019-05-25T01:47:57.422Z,0.90
2019-05-25T01:49:03.547Z,1.43
2019-05-25T01:50:09.475Z,1.27
2019-05-25T01:51:15.521Z,1.10
2019-05-25T01:52:20.524Z,1.10
2019-05-25T01:53:27.033Z,1.40
2019-05-25T01:54:32.444Z,1.50
2019-05-25T01:55:38.496Z,1.30
2019-05-25T01:56:43.570Z,1.80
2019-05-25T01:57:49.507Z,1.60
2019-05-25T01:58:54.911Z,1.03
2019-05-25T02:00:00.705Z,1.20
2019-05-25T02:01:06.535Z,1.30
2019-05-25T02:02:16.460Z,1.43
2019-05-25T02:03:21.813Z,1.10
2019-05-25T02:04:27.708Z,1.07
2019-05-25T02:05:33.767Z,1.20
2019-05-25T02:06:39.625Z,1.00
2019-05-25T02:07:45.003Z,1.27
2019-05-25T02:08:51.238Z,1.20
2019-05-25T02:09:56.259Z,1.40
2019-05-25T02:11:02.496Z,1.43
2019-05-25T02:12:07.626Z,1.10
2019-05-25T02:13:13.925Z,1.13
2019-05-25T02:14:19.036Z,1.27
2019-05-25T02:15:25.392Z,1.20
2019-05-25T02:16:30.791Z,1.20
2019-05-25T02:17:36.996Z,1.30
2019-05-25T02:18:45.561Z,1.20
2019-05-25T02:19:49.997Z,1.00
2019-05-25T02:20:55.099Z,1.30
2019-05-25T02:22:01.219Z,1.20
2019-05-25T02:23:06.705Z,1.17
2019-05-25T02:24:12.988Z,1.30
2019-05-25T02:25:19.209Z,1.00
2019-05-25T02:26:25.153Z,1.00
2019-05-25T02:27:30.166Z,1.20
2019-05-25T02:28:36.338Z,1.37
2019-05-25T02:29:41.916Z,1.13
2019-05-25T02:30:47.779Z,1.00
2019-05-25T02:31:53.161Z,1.30
2019-05-25T02:32:59.653Z,1.13
2019-05-25T02:34:05.129Z,1.30
2019-05-25T02:35:16.203Z,1.30
2019-05-25T02:36:21.615Z,1.07
2019-05-25T02:37:27.467Z,1.00
2019-05-25T02:38:32.919Z,1.10
2019-05-25T02:39:38.880Z,0.90
2019-05-25T02:40:44.076Z,1.17
2019-05-25T02:41:49.946Z,0.80
2019-05-25T02:42:55.187Z,0.90
2019-05-25T02:44:01.166Z,1.10
2019-05-25T02:45:06.833Z,1.30
2019-05-25T02:46:12.969Z,1.03
2019-05-25T02:47:18.452Z,1.07
2019-05-25T02:48:24.402Z,0.90
2019-05-25T02:49:30.389Z,1.13
2019-05-25T02:50:36.444Z,1.07
2019-05-25T02:51:41.891Z,0.90
2019-05-25T02:52:47.828Z,1.20
2019-05-25T02:53:53.220Z,1.20
2019-05-25T02:54:59.374Z,1.17
2019-05-25T02:56:05.013Z,0.93
2019-05-25T02:57:10.955Z,1.07
2019-05-25T02:58:16.058Z,1.17
2019-05-25T02:59:21.921Z,1.00
2019-05-25T03:00:34.929Z,1.30
2019-05-25T03:01:40.860Z,1.10
2019-05-25T03:02:46.269Z,1.23
2019-05-25T03:03:52.946Z,1.27
2019-05-25T03:04:58.951Z,0.93
2019-05-25T03:06:07.286Z,1.30
2019-05-25T03:07:14.073Z,1.10
2019-05-25T03:08:20.291Z,1.20
2019-05-25T03:09:28.369Z,1.20
2019-05-25T03:10:34.810Z,0.80
2019-05-25T03:11:41.697Z,0.90
2019-05-25T03:12:47.664Z,1.20
2019-05-25T03:13:53.446Z,0.70
2019-05-25T03:14:59.437Z,1.10
2019-05-25T03:16:04.714Z,0.90
2019-05-25T03:17:10.881Z,1.17
2019-05-25T03:18:15.978Z,1.00
2019-05-25T03:19:21.963Z,1.20
2019-05-25T03:20:27.468Z,0.87
2019-05-25T03:21:33.267Z,1.17
2019-05-25T03:22:38.648Z,1.17
2019-05-25T03:23:44.857Z,1.10
2019-05-25T03:24:50.257Z,1.00
2019-05-25T03:25:56.448Z,0.90
2019-05-25T03:27:01.631Z,0.90
2019-05-25T03:28:07.454Z,0.93
2019-05-25T03:29:13.013Z,1.20
2019-05-25T03:30:32.208Z,1.00
2019-05-25T03:31:37.902Z,1.00
2019-05-25T03:32:44.331Z,0.97
2019-05-25T03:33:49.346Z,1.10
2019-05-25T03:34:55.148Z,0.73
2019-05-25T03:36:00.903Z,1.10
2019-05-25T03:37:06.777Z,1.00
2019-05-25T03:38:12.263Z,1.20
2019-05-25T03:39:18.621Z,0.93
2019-05-25T03:40:23.889Z,1.20
2019-05-25T03:41:29.772Z,1.03
2019-05-25T03:42:36.058Z,1.07
2019-05-25T03:43:42.497Z,1.30
2019-05-25T03:44:47.957Z,1.07
2019-05-25T03:45:54.153Z,1.13
2019-05-25T03:46:59.179Z,1.10
2019-05-25T03:48:05.251Z,1.00
2019-05-25T03:49:10.749Z,1.20
2019-05-25T03:50:16.913Z,1.20
2019-05-25T03:51:22.705Z,1.10
2019-05-25T03:52:28.689Z,1.10
2019-05-25T03:53:33.852Z,0.87
2019-05-25T03:54:39.968Z,1.10
2019-05-25T03:55:45.241Z,1.10
2019-05-25T03:56:51.539Z,0.93
2019-05-25T03:57:56.894Z,0.83
2019-05-25T03:59:02.950Z,0.90
2019-05-25T04:00:08.719Z,1.00
2019-05-25T04:01:14.738Z,1.10
2019-05-25T04:02:20.057Z,0.90
2019-05-25T04:03:26.139Z,1.00
2019-05-25T04:04:31.593Z,1.10
2019-05-25T04:05:38.017Z,1.10
2019-05-25T04:06:43.029Z,1.07
2019-05-25T04:07:48.998Z,0.90
2019-05-25T04:08:54.550Z,1.03
2019-05-25T04:10:00.703Z,1.03
2019-05-25T04:11:05.889Z,1.00
2019-05-25T04:12:12.035Z,1.00
2019-05-25T04:13:17.438Z,1.10
2019-05-25T04:14:23.556Z,1.03
2019-05-25T04:15:29.377Z,0.90
2019-05-25T04:16:35.168Z,0.90
2019-05-25T04:17:40.486Z,1.03
2019-05-25T04:18:46.342Z,1.10
2019-05-25T04:19:51.400Z,1.40
2019-05-25T04:20:57.483Z,1.00
2019-05-25T04:22:02.749Z,0.80
2019-05-25T04:23:09.072Z,1.10
2019-05-25T04:24:17.877Z,0.90
2019-05-25T04:25:23.923Z,0.83
2019-05-25T04:26:29.105Z,1.00
2019-05-25T04:27:35.409Z,1.20
2019-05-25T04:28:40.903Z,1.00
2019-05-25T04:29:47.104Z,1.10
2019-05-25T04:30:52.481Z,1.17
2019-05-25T04:31:58.602Z,1.20
2019-05-25T04:33:03.727Z,1.07
2019-05-25T04:34:10.104Z,1.20
2019-05-25T04:35:15.839Z,1.20
2019-05-25T04:36:21.736Z,1.27
2019-05-25T04:37:27.219Z,1.33
2019-05-25T04:38:33.012Z,1.43
2019-05-25T04:39:38.582Z,1.40
2019-05-25T04:40:44.456Z,1.80
2019-05-25T04:41:49.560Z,1.40
2019-05-25T04:42:55.391Z,1.47
2019-05-25T04:44:00.661Z,1.50
2019-05-25T04:45:08.786Z,1.77
2019-05-25T04:46:14.004Z,1.70
2019-05-25T04:47:26.936Z,1.50
2019-05-25T04:48:28.544Z,1.50
2019-05-25T04:49:34.893Z,1.60
2019-05-25T04:50:40.494Z,1.37
2019-05-25T04:51:46.415Z,1.10
2019-05-25T04:52:51.988Z,1.50
2019-05-25T04:53:58.157Z,1.73
2019-05-25T04:55:03.116Z,1.70
2019-05-25T04:56:09.515Z,1.50
2019-05-25T04:57:14.893Z,1.40
2019-05-25T04:58:21.096Z,1.60
2019-05-25T04:59:26.681Z,1.60
2019-05-25T05:00:32.564Z,1.67
2019-05-25T05:01:38.020Z,1.77
2019-05-25T05:02:44.211Z,1.90
2019-05-25T05:03:49.564Z,1.57
2019-05-25T05:04:55.726Z,1.57
2019-05-25T05:06:00.680Z,1.50
2019-05-25T05:07:06.978Z,1.67
2019-05-25T05:08:12.440Z,1.47
2019-05-25T05:09:19.085Z,1.67
2019-05-25T05:10:24.200Z,1.93
2019-05-25T05:11:30.101Z,1.60
2019-05-25T05:12:35.376Z,1.83
2019-05-25T05:13:41.566Z,1.60
2019-05-25T05:14:46.719Z,1.53
2019-05-25T05:15:52.852Z,1.70
2019-05-25T05:16:58.113Z,1.40
2019-05-25T05:18:04.000Z,1.77
2019-05-25T05:19:09.320Z,1.57
2019-05-25T05:20:15.816Z,1.70
2019-05-25T05:21:21.460Z,1.83
2019-05-25T05:22:27.901Z,1.57
2019-05-25T05:23:33.670Z,1.73
2019-05-25T05:24:39.621Z,1.63
2019-05-25T05:25:45.801Z,1.67
2019-05-25T05:26:55.968Z,1.50
2019-05-25T05:27:59.233Z,1.47
2019-05-25T05:29:05.709Z,1.50
2019-05-25T05:30:11.594Z,1.90
2019-05-25T05:31:23.530Z,1.63
2019-05-25T05:32:27.398Z,1.70
2019-05-25T05:33:32.531Z,1.87
2019-05-25T05:34:37.695Z,1.70
2019-05-25T05:35:44.449Z,1.93
2019-05-25T05:36:50.282Z,2.03
2019-05-25T05:37:56.628Z,2.13
2019-05-25T05:39:01.909Z,1.97
2019-05-25T05:40:09.627Z,1.80
2019-05-25T05:41:17.628Z,2.23
2019-05-25T05:42:25.905Z,2.00
2019-05-25T05:43:32.085Z,1.90
2019-05-25T05:44:42.304Z,1.70
2019-05-25T05:45:51.701Z,1.83
2019-05-25T05:47:00.392Z,1.80
2019-05-25T05:48:05.842Z,1.93
2019-05-25T05:49:14.661Z,2.00
2019-05-25T05:50:20.041Z,2.03
2019-05-25T05:51:28.357Z,2.00
2019-05-25T05:52:38.637Z,1.90
2019-05-25T05:53:47.299Z,1.70
2019-05-25T05:54:54.144Z,2.00
2019-05-25T05:56:00.046Z,2.10
2019-05-25T05:57:12.261Z,2.00
2019-05-25T05:58:13.082Z,2.00
2019-05-25T05:59:18.165Z,2.17
2019-05-25T06:00:24.479Z,1.90
2019-05-25T06:01:29.669Z,1.87
2019-05-25T06:02:35.868Z,1.90
2019-05-25T06:03:41.382Z,1.77
2019-05-25T06:04:48.309Z,1.77
2019-05-25T06:05:53.227Z,1.80
2019-05-25T06:06:59.190Z,1.90
2019-05-25T06:08:05.085Z,1.80
2019-05-25T06:09:11.394Z,2.20
2019-05-25T06:10:17.730Z,1.60
2019-05-25T06:11:23.592Z,2.07
2019-05-25T06:12:28.700Z,2.23
2019-05-25T06:13:35.277Z,1.90
2019-05-25T06:14:40.229Z,1.80
2019-05-25T06:15:47.124Z,2.00
2019-05-25T06:16:52.221Z,2.10
2019-05-25T06:17:58.400Z,2.00
2019-05-25T06:19:03.520Z,1.87
2019-05-25T06:20:10.856Z,2.00
2019-05-25T06:21:16.101Z,1.70
2019-05-25T06:22:22.335Z,2.03
2019-05-25T06:23:27.355Z,2.23
2019-05-25T06:24:33.718Z,2.10
2019-05-25T06:25:39.081Z,2.20
2019-05-25T06:26:44.938Z,2.40
2019-05-25T06:27:50.413Z,2.60
2019-05-25T06:28:56.279Z,2.60
2019-05-25T06:30:01.778Z,2.27
2019-05-25T06:31:08.265Z,2.37
2019-05-25T06:32:13.621Z,2.60
2019-05-25T06:33:20.016Z,1.93
2019-05-25T06:34:25.234Z,1.83
2019-05-25T06:35:31.210Z,1.90
2019-05-25T06:36:36.759Z,2.30
2019-05-25T06:37:43.489Z,2.20
2019-05-25T06:38:48.510Z,2.10
2019-05-25T06:39:54.956Z,2.70
2019-05-25T06:41:00.034Z,2.40
2019-05-25T06:42:06.011Z,2.17
2019-05-25T06:43:11.120Z,2.10
2019-05-25T06:44:17.294Z,2.50
2019-05-25T06:45:22.548Z,2.40
2019-05-25T06:46:29.108Z,2.40
2019-05-25T06:47:34.721Z,2.77
2019-05-25T06:48:40.879Z,2.10
2019-05-25T06:49:45.886Z,2.80
2019-05-25T06:50:52.622Z,2.07
2019-05-25T06:51:57.893Z,2.47
2019-05-25T06:53:03.696Z,2.40
2019-05-25T06:54:09.354Z,2.60
2019-05-25T06:55:15.700Z,2.50
2019-05-25T06:56:20.883Z,2.40
2019-05-25T06:57:40.317Z,2.60
2019-05-25T06:58:33.914Z,2.57
2019-05-25T06:59:39.813Z,2.40
2019-05-25T07:00:45.603Z,2.63
2019-05-25T07:01:51.845Z,2.70
2019-05-25T07:02:57.624Z,2.53
2019-05-25T07:04:04.523Z,2.80
2019-05-25T07:05:10.776Z,2.70
2019-05-25T07:06:16.573Z,2.53
2019-05-25T07:07:21.968Z,2.27
2019-05-25T07:08:28.720Z,3.00
2019-05-25T07:09:33.919Z,2.63
2019-05-25T07:10:39.986Z,3.00
2019-05-25T07:11:45.029Z,2.60
2019-05-25T07:12:51.285Z,2.40
2019-05-25T07:13:56.982Z,3.10
2019-05-25T07:15:02.947Z,2.70
2019-05-25T07:16:08.358Z,2.80
2019-05-25T07:17:14.476Z,2.57
2019-05-25T07:18:19.900Z,2.23
2019-05-25T07:19:26.167Z,2.90
2019-05-25T07:20:31.802Z,2.80
2019-05-25T07:21:38.018Z,3.20
2019-05-25T07:22:43.687Z,2.67
2019-05-25T07:23:49.968Z,3.27
2019-05-25T07:24:55.487Z,2.93
2019-05-25T07:26:01.979Z,3.60
2019-05-25T07:27:07.886Z,2.70
2019-05-25T07:28:13.814Z,3.30
2019-05-25T07:29:19.693Z,2.70
2019-05-25T07:30:25.725Z,3.03
2019-05-25T07:31:30.890Z,3.20
2019-05-25T07:32:36.841Z,3.20
2019-05-25T07:33:42.008Z,3.30
2019-05-25T07:34:47.796Z,3.30
2019-05-25T07:35:53.638Z,3.07
2019-05-25T07:36:59.761Z,3.90
2019-05-25T07:38:04.936Z,3.70
2019-05-25T07:39:10.750Z,3.37
2019-05-25T07:40:16.589Z,3.40
2019-05-25T07:41:22.362Z,3.33
2019-05-25T07:42:27.636Z,3.40
2019-05-25T07:43:33.842Z,3.40
2019-05-25T07:44:39.024Z,2.80
2019-05-25T07:45:45.141Z,3.33
2019-05-25T07:46:50.685Z,3.70
2019-05-25T07:47:57.060Z,3.90
2019-05-25T07:49:02.297Z,3.97
2019-05-25T07:50:09.604Z,4.23
2019-05-25T07:51:15.354Z,3.90
2019-05-25T07:52:21.219Z,4.13
2019-05-25T07:53:27.095Z,4.17
2019-05-25T07:54:33.590Z,4.63
2019-05-25T07:55:38.857Z,4.13
2019-05-25T07:56:44.927Z,4.43
2019-05-25T07:57:50.132Z,4.17
2019-05-25T07:58:56.647Z,4.80
2019-05-25T08:00:02.228Z,4.53
2019-05-25T08:01:08.657Z,4.63
2019-05-25T08:02:13.854Z,4.80
2019-05-25T08:03:19.718Z,4.83
2019-05-25T08:04:25.237Z,5.27
2019-05-25T08:05:31.441Z,5.17
2019-05-25T08:06:37.125Z,5.77
2019-05-25T08:07:43.078Z,6.17
2019-05-25T08:08:48.528Z,5.50
2019-05-25T08:09:54.894Z,5.37
2019-05-25T08:11:00.595Z,5.47
2019-05-25T08:12:06.841Z,5.47
2019-05-25T08:13:12.087Z,5.20
2019-05-25T08:14:18.237Z,6.23
2019-05-25T08:15:23.631Z,5.90
2019-05-25T08:16:30.078Z,5.83
2019-05-25T08:17:35.545Z,5.93
2019-05-25T08:18:42.012Z,5.97
2019-05-25T08:19:47.504Z,6.10
2019-05-25T08:20:54.015Z,6.10
2019-05-25T08:21:59.763Z,6.70
2019-05-25T08:23:06.087Z,6.70
2019-05-25T08:24:11.204Z,6.87
2019-05-25T08:25:17.674Z,6.50
2019-05-25T08:26:23.203Z,6.93
2019-05-25T08:27:29.534Z,7.07
2019-05-25T08:28:34.721Z,7.50
2019-05-25T08:29:40.534Z,7.03
2019-05-25T08:30:46.084Z,7.13
2019-05-25T08:31:52.371Z,7.60
2019-05-25T08:32:57.467Z,7.43
2019-05-25T08:34:03.371Z,7.43
2019-05-25T08:35:08.939Z,7.03
2019-05-25T08:36:15.072Z,7.40
2019-05-25T08:37:20.539Z,7.97
2019-05-25T08:38:26.492Z,8.17
2019-05-25T08:39:31.401Z,7.53
2019-05-25T08:40:37.746Z,7.30
2019-05-25T08:41:45.424Z,7.60
2019-05-25T08:42:50.551Z,7.13
2019-05-25T08:43:55.895Z,7.30
2019-05-25T08:45:01.830Z,6.73
2019-05-25T08:46:07.264Z,7.17
2019-05-25T08:47:13.402Z,7.50
2019-05-25T08:48:18.530Z,6.90
2019-05-25T08:49:24.398Z,6.60
2019-05-25T08:50:38.123Z,6.80
2019-05-25T08:51:37.269Z,6.67
2019-05-25T08:52:42.460Z,7.13
2019-05-25T08:53:48.815Z,7.23
2019-05-25T08:54:56.751Z,6.43
2019-05-25T08:56:01.830Z,6.57
2019-05-25T08:57:06.978Z,6.30
2019-05-25T08:58:12.866Z,6.83
2019-05-25T08:59:18.714Z,6.63
2019-05-25T09:00:25.029Z,6.73
2019-05-25T09:01:30.831Z,6.70
2019-05-25T09:02:37.050Z,7.57
2019-05-25T09:03:42.053Z,6.63
2019-05-25T09:04:48.736Z,6.10
2019-05-25T09:05:54.043Z,5.93
2019-05-25T09:07:00.254Z,5.30
2019-05-25T09:08:06.036Z,5.37
2019-05-25T09:09:12.254Z,5.17
2019-05-25T09:10:19.308Z,5.50
2019-05-25T09:11:25.479Z,5.07
2019-05-25T09:12:31.007Z,4.23
2019-05-25T09:13:36.798Z,4.20
2019-05-25T09:14:41.849Z,4.27
2019-05-25T09:15:48.161Z,4.43
2019-05-25T09:16:53.983Z,3.93
2019-05-25T09:18:00.023Z,3.47
2019-05-25T09:19:05.121Z,3.17
2019-05-25T09:20:11.949Z,3.10
2019-05-25T09:21:17.690Z,2.87
2019-05-25T09:22:23.801Z,2.93
2019-05-25T09:23:29.203Z,3.10
2019-05-25T09:24:35.736Z,2.80
2019-05-25T09:25:41.355Z,3.20
2019-05-25T09:26:47.667Z,2.90
2019-05-25T09:27:53.718Z,3.37
2019-05-25T09:29:04.666Z,2.90
2019-05-25T09:30:07.798Z,4.03
2019-05-25T09:31:13.646Z,3.60
2019-05-25T09:32:19.494Z,3.20
2019-05-25T09:33:25.434Z,4.00
2019-05-25T09:34:30.846Z,3.23
2019-05-25T09:35:36.977Z,3.43
2019-05-25T09:36:42.379Z,3.83
2019-05-25T09:37:48.470Z,3.33
2019-05-25T09:38:53.485Z,3.17
2019-05-25T09:39:59.382Z,3.60
2019-05-25T09:41:05.172Z,3.63
2019-05-25T09:42:11.022Z,3.30
2019-05-25T09:43:16.449Z,2.87
2019-05-25T09:44:22.438Z,2.90
2019-05-25T09:45:27.554Z,3.20
2019-05-25T09:46:33.500Z,3.43
2019-05-25T09:47:39.037Z,3.00
2019-05-25T09:48:45.055Z,3.57
2019-05-25T09:49:50.489Z,3.63
2019-05-25T09:50:56.377Z,3.17
2019-05-25T09:52:01.837Z,3.40
2019-05-25T09:53:07.692Z,2.83
2019-05-25T09:54:13.746Z,3.10
2019-05-25T09:55:20.006Z,3.33
2019-05-25T09:56:25.855Z,3.57
2019-05-25T09:57:31.798Z,3.13
2019-05-25T09:58:36.933Z,3.10
2019-05-25T09:59:42.905Z,3.17
2019-05-25T10:00:48.211Z,3.00
2019-05-25T10:01:54.154Z,3.00
2019-05-25T10:02:59.331Z,3.00
2019-05-25T10:04:05.959Z,3.10
2019-05-25T10:05:11.846Z,3.17
2019-05-25T10:06:17.794Z,2.73
2019-05-25T10:07:23.301Z,3.10
2019-05-25T10:08:29.570Z,3.00
2019-05-25T10:09:35.068Z,2.43
2019-05-25T10:10:41.722Z,2.80
2019-05-25T10:11:47.135Z,2.30
2019-05-25T10:12:53.367Z,2.60
2019-05-25T10:13:58.379Z,2.17
2019-05-25T10:15:04.244Z,2.60
2019-05-25T10:16:09.465Z,2.23
2019-05-25T10:17:15.728Z,2.27
2019-05-25T10:18:20.812Z,2.40
2019-05-25T10:19:26.743Z,2.27
2019-05-25T10:20:32.084Z,1.83
2019-05-25T10:21:38.434Z,2.03
2019-05-25T10:22:43.549Z,2.27
2019-05-25T10:23:49.675Z,2.20
2019-05-25T10:24:55.271Z,2.10
2019-05-25T10:26:01.432Z,2.00
2019-05-25T10:27:06.620Z,2.27
2019-05-25T10:28:12.573Z,3.63
2019-05-25T10:29:18.028Z,3.53
2019-05-25T10:30:24.229Z,24.43
2019-05-25T10:31:30.024Z,13.13
2019-05-25T10:32:35.975Z,5.70
2019-05-25T10:33:41.084Z,3.10
2019-05-25T10:34:46.881Z,2.37
2019-05-25T10:35:52.388Z,1.50
2019-05-25T10:36:58.320Z,2.10
2019-05-25T10:38:03.754Z,2.10
2019-05-25T10:39:10.963Z,2.40
2019-05-25T10:40:17.619Z,2.00
2019-05-25T10:41:23.607Z,1.73
2019-05-25T10:42:29.054Z,1.77
2019-05-25T10:43:35.013Z,1.97
2019-05-25T10:44:40.207Z,1.70
2019-05-25T10:45:46.448Z,1.60
2019-05-25T10:46:51.808Z,1.57
2019-05-25T10:47:58.026Z,1.47
2019-05-25T10:49:03.966Z,1.70
2019-05-25T10:50:11.479Z,1.20
2019-05-25T10:51:16.636Z,4.03
2019-05-25T10:52:22.899Z,2.30
2019-05-25T10:53:28.007Z,1.50
2019-05-25T10:54:34.130Z,1.50
2019-05-25T10:55:39.473Z,1.30
2019-05-25T10:56:45.752Z,1.33
2019-05-25T10:57:51.073Z,1.30
2019-05-25T10:58:57.846Z,1.50
2019-05-25T11:00:03.203Z,1.20
2019-05-25T11:01:09.154Z,1.30
2019-05-25T11:02:14.267Z,1.50
2019-05-25T11:03:20.216Z,1.33
2019-05-25T11:04:25.253Z,1.27
2019-05-25T11:05:31.199Z,1.40
2019-05-25T11:06:36.368Z,1.40
2019-05-25T11:07:42.288Z,1.40
2019-05-25T11:08:47.674Z,1.20
2019-05-25T11:09:53.555Z,1.43
2019-05-25T11:10:59.671Z,1.47
2019-05-25T11:12:05.997Z,1.33
2019-05-25T11:13:11.158Z,1.73
2019-05-25T11:14:17.908Z,1.50
2019-05-25T11:15:23.091Z,1.32
2019-05-25T11:16:29.058Z,2.07
2019-05-25T11:17:34.557Z,2.20
2019-05-25T11:18:40.573Z,2.22
2019-05-25T11:19:46.082Z,1.52
2019-05-25T11:20:52.570Z,1.45
2019-05-25T11:21:57.972Z,1.77
2019-05-25T11:23:04.523Z,1.70
2019-05-25T11:24:09.636Z,1.40
2019-05-25T11:25:15.970Z,5.43
2019-05-25T11:26:21.057Z,2.22
2019-05-25T11:27:27.009Z,1.90
2019-05-25T11:28:32.677Z,1.25
2019-05-25T11:29:38.830Z,2.67
2019-05-25T11:30:44.366Z,1.72
2019-05-25T11:31:56.530Z,29.63
2019-05-25T11:32:57.742Z,24.23
2019-05-25T11:34:04.256Z,17.00
2019-05-25T11:35:10.259Z,7.90
2019-05-25T11:36:16.102Z,3.75
2019-05-25T11:37:21.145Z,2.05
2019-05-25T11:38:27.337Z,1.65
2019-05-25T11:39:32.496Z,1.70
2019-05-25T11:40:38.716Z,1.60
2019-05-25T11:41:44.263Z,1.72
2019-05-25T11:42:50.140Z,1.80
2019-05-25T11:43:55.519Z,1.60
2019-05-25T11:45:01.626Z,2.02
2019-05-25T11:46:06.866Z,1.40
2019-05-25T11:47:12.865Z,1.70
2019-05-25T11:48:18.667Z,1.30
2019-05-25T11:49:25.362Z,1.55
2019-05-25T11:50:30.848Z,1.52
2019-05-25T11:51:37.143Z,1.60
2019-05-25T11:52:43.101Z,1.90
2019-05-25T11:53:49.370Z,1.60
2019-05-25T11:54:54.610Z,1.72
2019-05-25T11:56:00.855Z,1.60
2019-05-25T11:57:06.400Z,1.37
2019-05-25T11:58:12.366Z,1.40
2019-05-25T11:59:17.533Z,1.37
2019-05-25T12:00:25.990Z,1.30
2019-05-25T12:01:31.316Z,1.35
2019-05-25T12:02:37.178Z,1.02
2019-05-25T12:03:42.684Z,1.70
2019-05-25T12:04:48.868Z,1.85
2019-05-25T12:05:54.698Z,2.00
2019-05-25T12:07:00.724Z,1.90
2019-05-25T12:08:06.295Z,1.98
2019-05-25T12:09:12.526Z,1.35
2019-05-25T12:10:19.844Z,1.60
2019-05-25T12:11:25.979Z,1.35
2019-05-25T12:12:31.051Z,1.50
2019-05-25T12:13:37.091Z,1.20
2019-05-25T12:14:42.559Z,1.12
2019-05-25T12:15:49.017Z,1.42
2019-05-25T12:16:54.194Z,1.37
2019-05-25T12:18:00.273Z,1.52
2019-05-25T12:19:05.452Z,2.00
2019-05-25T12:20:12.353Z,1.98
2019-05-25T12:21:17.831Z,1.45
2019-05-25T12:22:23.772Z,1.70
2019-05-25T12:23:29.257Z,1.52
2019-05-25T12:24:35.434Z,1.40
2019-05-25T12:25:40.786Z,2.37
2019-05-25T12:26:46.765Z,2.45
2019-05-25T12:27:52.599Z,2.40
2019-05-25T12:28:58.493Z,3.27
2019-05-25T12:30:03.827Z,1.95
2019-05-25T12:31:09.706Z,2.00
2019-05-25T12:32:14.951Z,18.27
2019-05-25T12:33:20.784Z,6.42
2019-05-25T12:34:26.729Z,3.20
2019-05-25T12:35:33.142Z,2.00
2019-05-25T12:36:38.343Z,2.12
2019-05-25T12:37:44.249Z,3.08
2019-05-25T12:38:49.622Z,2.33
2019-05-25T12:39:55.861Z,3.42
2019-05-25T12:41:01.626Z,2.83
2019-05-25T12:42:07.699Z,2.00
2019-05-25T12:43:13.030Z,2.22
2019-05-25T12:44:18.825Z,1.52
2019-05-25T12:45:25.759Z,1.80
2019-05-25T12:46:32.048Z,3.75
2019-05-25T12:47:37.213Z,2.30
2019-05-25T12:48:43.602Z,1.98
2019-05-25T12:49:50.958Z,1.70
2019-05-25T12:50:56.896Z,1.98
2019-05-25T12:52:02.069Z,2.05
2019-05-25T12:53:08.342Z,1.75
2019-05-25T12:54:14.303Z,2.05
2019-05-25T12:55:20.519Z,2.00
2019-05-25T12:56:25.955Z,2.15
2019-05-25T12:57:32.223Z,1.92
2019-05-25T12:58:37.967Z,2.02
2019-05-25T12:59:43.912Z,2.08
2019-05-25T13:00:56.028Z,1.77
2019-05-25T13:01:56.773Z,2.17
2019-05-25T13:03:02.276Z,1.72
2019-05-25T13:04:08.587Z,2.08
2019-05-25T13:05:14.144Z,1.80
2019-05-25T13:06:20.157Z,1.32
2019-05-25T13:07:25.784Z,1.72
2019-05-25T13:08:31.672Z,1.40
2019-05-25T13:09:37.256Z,1.80
2019-05-25T13:10:43.747Z,1.72
2019-05-25T13:11:49.694Z,1.80
2019-05-25T13:12:57.666Z,2.30
2019-05-25T13:14:14.088Z,2.27
2019-05-25T13:15:10.722Z,1.75
2019-05-25T13:16:15.757Z,2.15
2019-05-25T13:17:22.061Z,2.62
2019-05-25T13:18:27.115Z,2.17
2019-05-25T13:19:33.254Z,2.15
2019-05-25T13:20:38.646Z,2.50
2019-05-25T13:21:44.446Z,2.20
2019-05-25T13:22:49.917Z,1.77
2019-05-25T13:23:56.182Z,2.42
2019-05-25T13:25:01.355Z,2.12
2019-05-25T13:26:07.359Z,2.12
2019-05-25T13:27:12.562Z,2.00
2019-05-25T13:28:18.683Z,2.05
2019-05-25T13:29:24.322Z,1.67
2019-05-25T13:30:30.863Z,1.80
2019-05-25T13:31:35.929Z,1.62
2019-05-25T13:32:42.084Z,1.62
2019-05-25T13:33:47.123Z,1.95
2019-05-25T13:34:53.580Z,2.62
2019-05-25T13:35:58.726Z,2.77
2019-05-25T13:37:04.703Z,2.25
2019-05-25T13:38:10.055Z,2.52
2019-05-25T13:39:16.263Z,2.22
2019-05-25T13:40:21.440Z,2.02
2019-05-25T13:41:27.507Z,2.02
2019-05-25T13:42:32.767Z,2.08
2019-05-25T13:43:38.926Z,1.95
2019-05-25T13:44:44.642Z,1.87
2019-05-25T13:45:50.846Z,2.10
2019-05-25T13:46:56.267Z,1.80
2019-05-25T13:48:02.210Z,1.80
2019-05-25T13:49:07.716Z,2.15
2019-05-25T13:50:14.474Z,2.30
2019-05-25T13:51:19.664Z,2.42
2019-05-25T13:52:26.113Z,1.98
2019-05-25T13:53:33.073Z,2.00
2019-05-25T13:54:38.747Z,2.30
2019-05-25T13:55:43.854Z,1.72
2019-05-25T13:56:49.971Z,2.40
2019-05-25T13:57:54.968Z,2.00
2019-05-25T13:59:00.766Z,1.85
2019-05-25T14:00:08.804Z,1.95
2019-05-25T14:01:27.518Z,2.02
2019-05-25T14:02:21.578Z,1.92
2019-05-25T14:03:27.680Z,1.55
2019-05-25T14:04:32.791Z,1.77
2019-05-25T14:05:38.935Z,1.87
2019-05-25T14:06:44.096Z,1.70
2019-05-25T14:07:50.231Z,1.85
2019-05-25T14:08:55.582Z,1.72
2019-05-25T14:10:01.723Z,2.20
2019-05-25T14:11:06.880Z,2.30
2019-05-25T14:12:12.816Z,2.25
2019-05-25T14:13:17.922Z,1.45
2019-05-25T14:14:24.748Z,1.62
2019-05-25T14:15:30.088Z,1.80
2019-05-25T14:16:35.919Z,8.88
2019-05-25T14:17:41.181Z,3.15
2019-05-25T14:18:47.476Z,3.15
2019-05-25T14:19:52.566Z,3.08
2019-05-25T14:20:59.323Z,2.22
2019-05-25T14:22:04.740Z,2.95
2019-05-25T14:23:10.636Z,4.10
2019-05-25T14:24:15.737Z,2.60
2019-05-25T14:25:21.983Z,2.08
2019-05-25T14:26:27.718Z,1.80
2019-05-25T14:27:34.359Z,1.60
2019-05-25T14:28:39.382Z,1.70
2019-05-25T14:29:45.683Z,1.55
2019-05-25T14:30:51.082Z,1.80
2019-05-25T14:31:57.057Z,1.22
2019-05-25T14:33:02.588Z,2.10
2019-05-25T14:34:09.095Z,3.95
2019-05-25T14:35:15.307Z,2.00
2019-05-25T14:36:21.552Z,2.70
2019-05-25T14:37:27.942Z,2.00
2019-05-25T14:38:33.819Z,1.95